Terminal Aerodrome Forecast
Issued by NWS

Home | Current Version | Previous Version | Text Only | Print | Product List | Glossary On
Versions: 1 2 3 4 5 6 7 8 9 10 11 12 13 14
000
FTUS46 KSEW 221300 AAA
TAFCLM
TAF AMD
KCLM 221325Z 2213/2312 VRB03KT P6SM VCFG BKN004
      TEMPO 2213/2215 1 1/2SM BR VV001
     FM221600 29006KT P6SM SCT250=

USA.gov is the U.S. government's official web portal to all federal, state and local government web resources and services.